Chatham, Ohio
Current Conditions -  °F | °C
As of 6:56 AM on Tuesday 27 Jan 2015 (Local Time) from KBJJ Reporting Station
Light Snow Light Snow  
Wind Chill:   Ceiling: 2400
Heat Index: 14°   Visibility: 5mi
Dew Point: 11°   Wind: 6mph
Humidity: 88%   Direction: 340°NNW
Pressure: 29.94"   Gusts: NA
Location:  41.1389°N, 81.8638°W
Report Text: KBJJ 271156Z AUTO 34005KT 5SM -SN BR FEW015 BKN024 OVC029 M10/M12 A2994 RMK AO2 SLP159 P0000 60000 T11001117 11089 21117 53012 TSNO
Loading
Personal Weather Stations






























Interactive Weather Map New forecast layout! Learn more

10-Day Weather Forecast

Advertisements
Track Severe Weather on mobile